sensor_id;sensor_type;location;lat;lon;timestamp;temperature;humidity
72355;SHT30;60314;55.040;73.076;2023-01-15T00:02:26;-6.09;73.25
72355;SHT30;60314;55.040;73.076;2023-01-15T00:04:52;-6.09;73.29
72355;SHT30;60314;55.040;73.076;2023-01-15T00:07:23;-6.06;73.35
72355;SHT30;60314;55.040;73.076;2023-01-15T00:09:50;-6.06;73.21
72355;SHT30;60314;55.040;73.076;2023-01-15T00:12:16;-6.06;73.41
72355;SHT30;60314;55.040;73.076;2023-01-15T00:14:43;-6.04;73.43
72355;SHT30;60314;55.040;73.076;2023-01-15T00:17:10;-6.07;73.32
72355;SHT30;60314;55.040;73.076;2023-01-15T00:19:46;-6.14;73.38
72355;SHT30;60314;55.040;73.076;2023-01-15T00:22:23;-6.16;73.25
72355;SHT30;60314;55.040;73.076;2023-01-15T00:24:49;-6.18;73.37
72355;SHT30;60314;55.040;73.076;2023-01-15T00:27:37;-6.17;73.65
72355;SHT30;60314;55.040;73.076;2023-01-15T00:30:10;-6.13;73.51
72355;SHT30;60314;55.040;73.076;2023-01-15T00:32:47;-6.14;73.71
72355;SHT30;60314;55.040;73.076;2023-01-15T00:35:17;-6.16;73.28
72355;SHT30;60314;55.040;73.076;2023-01-15T00:37:49;-6.10;73.62
72355;SHT30;60314;55.040;73.076;2023-01-15T00:40:17;-6.10;73.47
72355;SHT30;60314;55.040;73.076;2023-01-15T00:42:44;-6.07;73.23
72355;SHT30;60314;55.040;73.076;2023-01-15T00:45:11;-6.03;73.22
72355;SHT30;60314;55.040;73.076;2023-01-15T00:47:41;-6.00;73.09
72355;SHT30;60314;55.040;73.076;2023-01-15T00:50:18;-6.02;72.99
72355;SHT30;60314;55.040;73.076;2023-01-15T00:52:44;-5.97;72.94
72355;SHT30;60314;55.040;73.076;2023-01-15T00:55:11;-6.00;72.98
72355;SHT30;60314;55.040;73.076;2023-01-15T00:57:38;-6.00;73.21
72355;SHT30;60314;55.040;73.076;2023-01-15T01:00:05;-6.00;73.06
72355;SHT30;60314;55.040;73.076;2023-01-15T01:02:31;-6.00;73.04
72355;SHT30;60314;55.040;73.076;2023-01-15T01:05:01;-6.00;73.08
72355;SHT30;60314;55.040;73.076;2023-01-15T01:07:33;-5.97;73.27
72355;SHT30;60314;55.040;73.076;2023-01-15T01:10:00;-5.93;72.94
72355;SHT30;60314;55.040;73.076;2023-01-15T01:12:26;-5.92;72.90
72355;SHT30;60314;55.040;73.076;2023-01-15T01:14:54;-5.90;72.68
72355;SHT30;60314;55.040;73.076;2023-01-15T01:17:20;-5.85;72.72
72355;SHT30;60314;55.040;73.076;2023-01-15T01:19:47;-5.87;72.43
72355;SHT30;60314;55.040;73.076;2023-01-15T01:22:13;-5.87;72.59
72355;SHT30;60314;55.040;73.076;2023-01-15T01:24:39;-5.89;72.41
72355;SHT30;60314;55.040;73.076;2023-01-15T01:27:06;-5.90;72.44
72355;SHT30;60314;55.040;73.076;2023-01-15T01:29:32;-5.89;72.75
72355;SHT30;60314;55.040;73.076;2023-01-15T01:32:08;-5.93;72.49
72355;SHT30;60314;55.040;73.076;2023-01-15T01:34:34;-5.93;72.63
72355;SHT30;60314;55.040;73.076;2023-01-15T01:37:00;-5.93;72.76
72355;SHT30;60314;55.040;73.076;2023-01-15T01:39:27;-5.89;72.59
72355;SHT30;60314;55.040;73.076;2023-01-15T01:42:04;-5.94;72.74
72355;SHT30;60314;55.040;73.076;2023-01-15T01:47:14;-5.96;72.81
72355;SHT30;60314;55.040;73.076;2023-01-15T01:49:51;-5.93;72.85
72355;SHT30;60314;55.040;73.076;2023-01-15T01:52:32;-5.94;72.56
72355;SHT30;60314;55.040;73.076;2023-01-15T01:55:00;-5.92;72.56
72355;SHT30;60314;55.040;73.076;2023-01-15T01:57:34;-5.93;72.53
72355;SHT30;60314;55.040;73.076;2023-01-15T02:00:01;-5.94;72.62
72355;SHT30;60314;55.040;73.076;2023-01-15T02:02:40;-5.97;72.65
72355;SHT30;60314;55.040;73.076;2023-01-15T02:05:07;-5.92;72.79
72355;SHT30;60314;55.040;73.076;2023-01-15T02:07:38;-5.89;72.80
72355;SHT30;60314;55.040;73.076;2023-01-15T02:10:11;-5.83;72.46
72355;SHT30;60314;55.040;73.076;2023-01-15T02:12:53;-5.83;72.72
72355;SHT30;60314;55.040;73.076;2023-01-15T02:15:42;-5.81;72.34
72355;SHT30;60314;55.040;73.076;2023-01-15T02:21:21;-5.85;72.59
72355;SHT30;60314;55.040;73.076;2023-01-15T02:28:44;-5.94;72.41
72355;SHT30;60314;55.040;73.076;2023-01-15T02:31:20;-5.92;72.72
72355;SHT30;60314;55.040;73.076;2023-01-15T02:33:56;-5.93;72.71
72355;SHT30;60314;55.040;73.076;2023-01-15T02:36:35;-5.89;72.53
72355;SHT30;60314;55.040;73.076;2023-01-15T02:39:05;-5.89;72.68
72355;SHT30;60314;55.040;73.076;2023-01-15T02:41:35;-5.94;72.65
72355;SHT30;60314;55.040;73.076;2023-01-15T02:44:04;-5.99;72.80
72355;SHT30;60314;55.040;73.076;2023-01-15T02:46:33;-6.04;72.96
72355;SHT30;60314;55.040;73.076;2023-01-15T02:49:08;-6.06;73.30
72355;SHT30;60314;55.040;73.076;2023-01-15T02:52:00;-6.07;73.29
72355;SHT30;60314;55.040;73.076;2023-01-15T02:54:29;-6.07;73.33
72355;SHT30;60314;55.040;73.076;2023-01-15T02:56:57;-6.10;73.30
72355;SHT30;60314;55.040;73.076;2023-01-15T02:59:29;-6.03;73.41
72355;SHT30;60314;55.040;73.076;2023-01-15T03:02:00;-6.07;73.28
72355;SHT30;60314;55.040;73.076;2023-01-15T03:04:32;-6.07;73.40
72355;SHT30;60314;55.040;73.076;2023-01-15T03:07:11;-6.09;73.46
72355;SHT30;60314;55.040;73.076;2023-01-15T03:09:49;-6.10;73.46
72355;SHT30;60314;55.040;73.076;2023-01-15T03:12:24;-6.11;73.36
72355;SHT30;60314;55.040;73.076;2023-01-15T03:17:23;-6.14;73.48
72355;SHT30;60314;55.040;73.076;2023-01-15T03:19:57;-6.16;73.26
72355;SHT30;60314;55.040;73.076;2023-01-15T03:22:30;-6.17;73.49
72355;SHT30;60314;55.040;73.076;2023-01-15T03:25:04;-6.20;73.76
72355;SHT30;60314;55.040;73.076;2023-01-15T03:27:40;-6.16;73.84
72355;SHT30;60314;55.040;73.076;2023-01-15T03:30:08;-6.16;73.56
72355;SHT30;60314;55.040;73.076;2023-01-15T03:32:36;-6.16;73.83
72355;SHT30;60314;55.040;73.076;2023-01-15T03:35:05;-6.11;73.69
72355;SHT30;60314;55.040;73.076;2023-01-15T03:37:41;-6.10;73.30
72355;SHT30;60314;55.040;73.076;2023-01-15T03:40:13;-6.13;73.55
72355;SHT30;60314;55.040;73.076;2023-01-15T03:43:05;-6.13;73.39
72355;SHT30;60314;55.040;73.076;2023-01-15T03:45:54;-6.13;73.68
72355;SHT30;60314;55.040;73.076;2023-01-15T03:48:30;-6.13;73.55
72355;SHT30;60314;55.040;73.076;2023-01-15T04:01:14;-6.11;73.38
72355;SHT30;60314;55.040;73.076;2023-01-15T04:03:46;-6.16;73.33
72355;SHT30;60314;55.040;73.076;2023-01-15T04:06:23;-6.09;73.36
72355;SHT30;60314;55.040;73.076;2023-01-15T04:08:51;-6.07;73.21
72355;SHT30;60314;55.040;73.076;2023-01-15T04:11:22;-6.06;73.11
72355;SHT30;60314;55.040;73.076;2023-01-15T04:13:51;-6.00;73.02
72355;SHT30;60314;55.040;73.076;2023-01-15T04:16:30;-6.00;72.88
72355;SHT30;60314;55.040;73.076;2023-01-15T04:18:57;-5.94;72.73
72355;SHT30;60314;55.040;73.076;2023-01-15T04:21:25;-5.92;72.62
72355;SHT30;60314;55.040;73.076;2023-01-15T04:23:56;-5.86;72.43
72355;SHT30;60314;55.040;73.076;2023-01-15T04:26:23;-5.82;72.39
72355;SHT30;60314;55.040;73.076;2023-01-15T04:28:49;-5.75;72.29
72355;SHT30;60314;55.040;73.076;2023-01-15T04:31:20;-5.73;71.59
72355;SHT30;60314;55.040;73.076;2023-01-15T04:33:52;-5.75;71.77
72355;SHT30;60314;55.040;73.076;2023-01-15T04:36:18;-5.69;72.19
72355;SHT30;60314;55.040;73.076;2023-01-15T04:38:45;-5.58;71.85
72355;SHT30;60314;55.040;73.076;2023-01-15T04:41:11;-5.51;71.47
72355;SHT30;60314;55.040;73.076;2023-01-15T04:44:00;-5.44;70.77
72355;SHT30;60314;55.040;73.076;2023-01-15T04:46:39;-5.39;70.67
72355;SHT30;60314;55.040;73.076;2023-01-15T04:49:07;-5.38;70.70
72355;SHT30;60314;55.040;73.076;2023-01-15T04:51:42;-5.45;70.41
72355;SHT30;60314;55.040;73.076;2023-01-15T04:54:09;-5.35;70.93
72355;SHT30;60314;55.040;73.076;2023-01-15T04:56:46;-5.39;70.73
72355;SHT30;60314;55.040;73.076;2023-01-15T04:59:18;-5.38;70.83
72355;SHT30;60314;55.040;73.076;2023-01-15T05:01:45;-5.30;70.32
72355;SHT30;60314;55.040;73.076;2023-01-15T05:04:17;-5.25;69.87
72355;SHT30;60314;55.040;73.076;2023-01-15T05:06:53;-5.24;70.36
72355;SHT30;60314;55.040;73.076;2023-01-15T05:09:20;-5.15;70.56
72355;SHT30;60314;55.040;73.076;2023-01-15T05:11:46;-5.10;70.01
72355;SHT30;60314;55.040;73.076;2023-01-15T05:14:13;-5.04;69.65
72355;SHT30;60314;55.040;73.076;2023-01-15T05:16:39;-5.01;69.84
72355;SHT30;60314;55.040;73.076;2023-01-15T05:19:10;-4.99;69.53
72355;SHT30;60314;55.040;73.076;2023-01-15T05:21:45;-4.94;69.23
72355;SHT30;60314;55.040;73.076;2023-01-15T05:24:13;-4.87;69.40
72355;SHT30;60314;55.040;73.076;2023-01-15T05:26:45;-4.87;69.05
72355;SHT30;60314;55.040;73.076;2023-01-15T05:29:17;-4.87;69.63
72355;SHT30;60314;55.040;73.076;2023-01-15T05:31:43;-4.87;69.39
72355;SHT30;60314;55.040;73.076;2023-01-15T05:34:10;-4.89;69.59
72355;SHT30;60314;55.040;73.076;2023-01-15T05:36:37;-4.83;69.56
72355;SHT30;60314;55.040;73.076;2023-01-15T05:39:03;-4.81;68.99
72355;SHT30;60314;55.040;73.076;2023-01-15T05:41:30;-4.75;69.55
72355;SHT30;60314;55.040;73.076;2023-01-15T05:44:24;-4.70;69.16
72355;SHT30;60314;55.040;73.076;2023-01-15T05:46:52;-4.69;69.61
72355;SHT30;60314;55.040;73.076;2023-01-15T05:49:25;-4.66;69.75
72355;SHT30;60314;55.040;73.076;2023-01-15T05:51:53;-4.63;69.05
72355;SHT30;60314;55.040;73.076;2023-01-15T05:54:31;-4.66;69.28
72355;SHT30;60314;55.040;73.076;2023-01-15T05:57:00;-4.58;68.99
72355;SHT30;60314;55.040;73.076;2023-01-15T05:59:27;-4.59;69.09
72355;SHT30;60314;55.040;73.076;2023-01-15T06:01:54;-4.56;69.09
72355;SHT30;60314;55.040;73.076;2023-01-15T06:04:20;-4.53;68.80
72355;SHT30;60314;55.040;73.076;2023-01-15T06:06:48;-4.55;68.98
72355;SHT30;60314;55.040;73.076;2023-01-15T06:09:19;-4.55;68.82
72355;SHT30;60314;55.040;73.076;2023-01-15T06:11:47;-4.53;69.20
72355;SHT30;60314;55.040;73.076;2023-01-15T06:14:14;-4.58;69.35
72355;SHT30;60314;55.040;73.076;2023-01-15T06:16:45;-4.60;68.72
72355;SHT30;60314;55.040;73.076;2023-01-15T06:19:12;-4.69;69.17
72355;SHT30;60314;55.040;73.076;2023-01-15T06:21:38;-4.70;69.46
72355;SHT30;60314;55.040;73.076;2023-01-15T06:24:05;-4.72;69.17
72355;SHT30;60314;55.040;73.076;2023-01-15T06:26:31;-4.65;69.33
72355;SHT30;60314;55.040;73.076;2023-01-15T06:29:03;-4.63;68.65
72355;SHT30;60314;55.040;73.076;2023-01-15T06:31:34;-4.68;68.65
72355;SHT30;60314;55.040;73.076;2023-01-15T06:34:00;-4.72;68.69
72355;SHT30;60314;55.040;73.076;2023-01-15T06:36:27;-4.66;68.85
72355;SHT30;60314;55.040;73.076;2023-01-15T06:38:59;-4.66;68.72
72355;SHT30;60314;55.040;73.076;2023-01-15T06:41:25;-4.66;68.62
72355;SHT30;60314;55.040;73.076;2023-01-15T06:44:14;-4.58;68.76
72355;SHT30;60314;55.040;73.076;2023-01-15T06:47:00;-4.59;68.44
72355;SHT30;60314;55.040;73.076;2023-01-15T06:49:56;-4.49;68.65
72355;SHT30;60314;55.040;73.076;2023-01-15T06:52:30;-4.50;68.25
72355;SHT30;60314;55.040;73.076;2023-01-15T06:54:57;-4.36;68.41
72355;SHT30;60314;55.040;73.076;2023-01-15T06:57:31;-4.32;67.54
72355;SHT30;60314;55.040;73.076;2023-01-15T06:59:58;-4.31;67.71
72355;SHT30;60314;55.040;73.076;2023-01-15T07:02:26;-4.26;67.39
72355;SHT30;60314;55.040;73.076;2023-01-15T07:04:58;-4.48;67.08
72355;SHT30;60314;55.040;73.076;2023-01-15T07:07:26;-4.36;67.90
72355;SHT30;60314;55.040;73.076;2023-01-15T07:09:53;-4.42;68.05
72355;SHT30;60314;55.040;73.076;2023-01-15T07:12:24;-4.42;67.86
72355;SHT30;60314;55.040;73.076;2023-01-15T07:14:54;-4.39;67.72
72355;SHT30;60314;55.040;73.076;2023-01-15T07:17:25;-4.35;67.40
72355;SHT30;60314;55.040;73.076;2023-01-15T07:19:52;-4.25;66.94
72355;SHT30;60314;55.040;73.076;2023-01-15T07:22:18;-4.38;67.05
72355;SHT30;60314;55.040;73.076;2023-01-15T07:24:55;-4.41;67.50
72355;SHT30;60314;55.040;73.076;2023-01-15T07:27:21;-4.42;67.28
72355;SHT30;60314;55.040;73.076;2023-01-15T07:29:51;-4.49;67.77
72355;SHT30;60314;55.040;73.076;2023-01-15T07:32:17;-4.58;67.84
72355;SHT30;60314;55.040;73.076;2023-01-15T07:34:44;-4.53;67.90
72355;SHT30;60314;55.040;73.076;2023-01-15T07:37:10;-4.58;68.10
72355;SHT30;60314;55.040;73.076;2023-01-15T07:39:37;-4.52;68.54
72355;SHT30;60314;55.040;73.076;2023-01-15T07:42:04;-4.53;67.58
72355;SHT30;60314;55.040;73.076;2023-01-15T07:44:49;-4.56;67.88
72355;SHT30;60314;55.040;73.076;2023-01-15T07:47:33;-4.69;68.44
72355;SHT30;60314;55.040;73.076;2023-01-15T07:50:19;-4.72;68.55
72355;SHT30;60314;55.040;73.076;2023-01-15T07:52:46;-4.70;68.81
72355;SHT30;60314;55.040;73.076;2023-01-15T07:55:22;-4.58;68.67
72355;SHT30;60314;55.040;73.076;2023-01-15T07:57:49;-4.55;68.49
72355;SHT30;60314;55.040;73.076;2023-01-15T08:00:19;-4.60;68.09
72355;SHT30;60314;55.040;73.076;2023-01-15T08:02:56;-4.60;68.44
72355;SHT30;60314;55.040;73.076;2023-01-15T08:05:27;-4.62;68.41
72355;SHT30;60314;55.040;73.076;2023-01-15T08:07:53;-4.62;69.01
72355;SHT30;60314;55.040;73.076;2023-01-15T08:10:20;-4.60;68.96
72355;SHT30;60314;55.040;73.076;2023-01-15T08:12:50;-4.65;68.59
72355;SHT30;60314;55.040;73.076;2023-01-15T08:15:39;-4.63;69.00
72355;SHT30;60314;55.040;73.076;2023-01-15T08:18:08;-4.63;68.81
72355;SHT30;60314;55.040;73.076;2023-01-15T08:20:34;-4.60;68.74
72355;SHT30;60314;55.040;73.076;2023-01-15T08:23:02;-4.66;68.51
72355;SHT30;60314;55.040;73.076;2023-01-15T08:25:31;-4.63;68.87
72355;SHT30;60314;55.040;73.076;2023-01-15T08:28:07;-4.58;68.77
72355;SHT30;60314;55.040;73.076;2023-01-15T08:30:33;-4.59;68.75
72355;SHT30;60314;55.040;73.076;2023-01-15T08:33:07;-4.59;68.31
72355;SHT30;60314;55.040;73.076;2023-01-15T08:35:40;-4.50;68.47
72355;SHT30;60314;55.040;73.076;2023-01-15T08:38:13;-4.50;68.19
72355;SHT30;60314;55.040;73.076;2023-01-15T08:40:39;-4.52;68.43
72355;SHT30;60314;55.040;73.076;2023-01-15T08:43:24;-4.50;68.54
72355;SHT30;60314;55.040;73.076;2023-01-15T08:45:50;-4.56;68.44
72355;SHT30;60314;55.040;73.076;2023-01-15T08:48:17;-4.56;68.48
72355;SHT30;60314;55.040;73.076;2023-01-15T08:50:44;-4.63;68.02
72355;SHT30;60314;55.040;73.076;2023-01-15T08:53:10;-4.72;68.63
72355;SHT30;60314;55.040;73.076;2023-01-15T08:55:36;-4.68;68.66
72355;SHT30;60314;55.040;73.076;2023-01-15T08:58:03;-4.62;68.50
72355;SHT30;60314;55.040;73.076;2023-01-15T09:00:29;-4.62;68.10
72355;SHT30;60314;55.040;73.076;2023-01-15T09:02:56;-4.76;68.10
72355;SHT30;60314;55.040;73.076;2023-01-15T09:05:22;-4.77;68.74
72355;SHT30;60314;55.040;73.076;2023-01-15T09:07:49;-4.80;68.90
72355;SHT30;60314;55.040;73.076;2023-01-15T09:10:15;-4.79;68.74
72355;SHT30;60314;55.040;73.076;2023-01-15T09:12:51;-4.79;68.69
72355;SHT30;60314;55.040;73.076;2023-01-15T09:15:18;-4.83;68.84
72355;SHT30;60314;55.040;73.076;2023-01-15T09:17:49;-4.94;68.91
72355;SHT30;60314;55.040;73.076;2023-01-15T09:20:16;-5.03;68.76
72355;SHT30;60314;55.040;73.076;2023-01-15T09:22:42;-5.04;69.01
72355;SHT30;60314;55.040;73.076;2023-01-15T09:25:08;-5.10;69.57
72355;SHT30;60314;55.040;73.076;2023-01-15T09:27:35;-5.10;69.61
72355;SHT30;60314;55.040;73.076;2023-01-15T09:30:02;-5.08;69.27
72355;SHT30;60314;55.040;73.076;2023-01-15T09:32:29;-5.05;69.32
72355;SHT30;60314;55.040;73.076;2023-01-15T09:34:57;-5.05;69.07
72355;SHT30;60314;55.040;73.076;2023-01-15T09:37:23;-5.04;69.14
72355;SHT30;60314;55.040;73.076;2023-01-15T09:39:50;-5.05;69.23
72355;SHT30;60314;55.040;73.076;2023-01-15T09:47:26;-5.04;69.51
72355;SHT30;60314;55.040;73.076;2023-01-15T09:55:26;-5.07;69.88
72355;SHT30;60314;55.040;73.076;2023-01-15T09:57:55;-5.10;69.49
72355;SHT30;60314;55.040;73.076;2023-01-15T10:00:24;-5.18;69.83
72355;SHT30;60314;55.040;73.076;2023-01-15T10:03:03;-5.20;69.67
72355;SHT30;60314;55.040;73.076;2023-01-15T10:05:46;-5.25;70.16
72355;SHT30;60314;55.040;73.076;2023-01-15T10:10:44;-5.35;70.63
72355;SHT30;60314;55.040;73.076;2023-01-15T10:15:52;-5.45;70.69
72355;SHT30;60314;55.040;73.076;2023-01-15T10:18:24;-5.44;70.61
72355;SHT30;60314;55.040;73.076;2023-01-15T10:20:59;-5.39;70.96
72355;SHT30;60314;55.040;73.076;2023-01-15T10:23:34;-5.39;70.89
72355;SHT30;60314;55.040;73.076;2023-01-15T10:26:02;-5.38;71.10
72355;SHT30;60314;55.040;73.076;2023-01-15T10:28:57;-5.42;70.80
72355;SHT30;60314;55.040;73.076;2023-01-15T10:36:45;-5.47;71.44
72355;SHT30;60314;55.040;73.076;2023-01-15T10:44:19;-5.50;71.83
72355;SHT30;60314;55.040;73.076;2023-01-15T10:46:57;-5.50;71.91
72355;SHT30;60314;55.040;73.076;2023-01-15T10:49:28;-5.50;71.80
72355;SHT30;60314;55.040;73.076;2023-01-15T10:51:56;-5.51;72.12
72355;SHT30;60314;55.040;73.076;2023-01-15T10:54:34;-5.50;71.63
72355;SHT30;60314;55.040;73.076;2023-01-15T10:59:38;-5.52;71.75
72355;SHT30;60314;55.040;73.076;2023-01-15T11:02:46;-5.55;71.78
72355;SHT30;60314;55.040;73.076;2023-01-15T11:05:04;-5.63;71.13
72355;SHT30;60314;55.040;73.076;2023-01-15T11:07:43;-5.69;71.32
72355;SHT30;60314;55.040;73.076;2023-01-15T11:10:11;-5.69;71.62
72355;SHT30;60314;55.040;73.076;2023-01-15T11:12:43;-5.72;71.75
72355;SHT30;60314;55.040;73.076;2023-01-15T11:15:44;-5.75;71.83
72355;SHT30;60314;55.040;73.076;2023-01-15T11:18:35;-5.76;71.97
72355;SHT30;60314;55.040;73.076;2023-01-15T11:21:31;-5.73;72.21
72355;SHT30;60314;55.040;73.076;2023-01-15T11:23:58;-5.81;72.01
72355;SHT30;60314;55.040;73.076;2023-01-15T11:26:28;-5.78;72.15
72355;SHT30;60314;55.040;73.076;2023-01-15T11:28:55;-5.78;72.26
72355;SHT30;60314;55.040;73.076;2023-01-15T11:31:33;-5.76;72.55
72355;SHT30;60314;55.040;73.076;2023-01-15T11:34:01;-5.78;72.08
72355;SHT30;60314;55.040;73.076;2023-01-15T11:36:34;-5.73;72.14
72355;SHT30;60314;55.040;73.076;2023-01-15T11:39:19;-5.73;72.23
72355;SHT30;60314;55.040;73.076;2023-01-15T11:41:45;-5.78;72.55
72355;SHT30;60314;55.040;73.076;2023-01-15T11:44:32;-5.86;73.22
72355;SHT30;60314;55.040;73.076;2023-01-15T11:47:18;-5.89;73.66
72355;SHT30;60314;55.040;73.076;2023-01-15T11:50:15;-5.99;74.30
72355;SHT30;60314;55.040;73.076;2023-01-15T11:53:00;-5.96;74.59
72355;SHT30;60314;55.040;73.076;2023-01-15T11:55:26;-5.90;74.49
72355;SHT30;60314;55.040;73.076;2023-01-15T11:57:54;-5.85;74.55
72355;SHT30;60314;55.040;73.076;2023-01-15T12:00:23;-5.92;75.06
72355;SHT30;60314;55.040;73.076;2023-01-15T12:02:53;-5.87;75.33
72355;SHT30;60314;55.040;73.076;2023-01-15T12:05:21;-5.92;75.74
72355;SHT30;60314;55.040;73.076;2023-01-15T12:07:50;-5.87;76.03
72355;SHT30;60314;55.040;73.076;2023-01-15T12:10:21;-5.92;76.37
72355;SHT30;60314;55.040;73.076;2023-01-15T12:13:25;-5.89;76.76
72355;SHT30;60314;55.040;73.076;2023-01-15T12:24:03;-5.93;77.77
72355;SHT30;60314;55.040;73.076;2023-01-15T12:26:34;-5.94;77.87
72355;SHT30;60314;55.040;73.076;2023-01-15T12:31:46;-5.99;78.15
72355;SHT30;60314;55.040;73.076;2023-01-15T12:34:16;-5.94;78.09
72355;SHT30;60314;55.040;73.076;2023-01-15T12:36:53;-5.94;78.26
72355;SHT30;60314;55.040;73.076;2023-01-15T12:39:35;-5.96;78.23
72355;SHT30;60314;55.040;73.076;2023-01-15T12:42:06;-5.96;78.34
72355;SHT30;60314;55.040;73.076;2023-01-15T12:44:53;-6.00;78.36
72355;SHT30;60314;55.040;73.076;2023-01-15T12:47:45;-6.02;78.47
72355;SHT30;60314;55.040;73.076;2023-01-15T12:50:27;-6.04;78.57
72355;SHT30;60314;55.040;73.076;2023-01-15T12:55:33;-6.06;78.86
72355;SHT30;60314;55.040;73.076;2023-01-15T12:58:22;-6.14;78.96
72355;SHT30;60314;55.040;73.076;2023-01-15T13:00:59;-6.18;79.26
72355;SHT30;60314;55.040;73.076;2023-01-15T13:03:29;-6.23;79.37
72355;SHT30;60314;55.040;73.076;2023-01-15T13:06:01;-6.18;79.20
72355;SHT30;60314;55.040;73.076;2023-01-15T13:11:11;-6.24;79.20
72355;SHT30;60314;55.040;73.076;2023-01-15T13:13:43;-6.23;79.23
72355;SHT30;60314;55.040;73.076;2023-01-15T13:16:29;-6.23;79.08
72355;SHT30;60314;55.040;73.076;2023-01-15T13:21:54;-6.28;79.18
72355;SHT30;60314;55.040;73.076;2023-01-15T13:29:36;-6.31;78.47
72355;SHT30;60314;55.040;73.076;2023-01-15T13:32:16;-6.33;78.36
72355;SHT30;60314;55.040;73.076;2023-01-15T13:34:49;-6.40;78.44
72355;SHT30;60314;55.040;73.076;2023-01-15T13:37:27;-6.40;78.50
72355;SHT30;60314;55.040;73.076;2023-01-15T13:42:45;-6.42;78.61
72355;SHT30;60314;55.040;73.076;2023-01-15T13:47:48;-6.37;78.93
72355;SHT30;60314;55.040;73.076;2023-01-15T13:50:28;-6.34;78.88
72355;SHT30;60314;55.040;73.076;2023-01-15T13:53:06;-6.24;78.87
72355;SHT30;60314;55.040;73.076;2023-01-15T13:55:38;-6.20;78.88
72355;SHT30;60314;55.040;73.076;2023-01-15T13:58:16;-6.24;78.98
72355;SHT30;60314;55.040;73.076;2023-01-15T14:00:44;-6.23;79.21
72355;SHT30;60314;55.040;73.076;2023-01-15T14:03:27;-6.21;79.31
72355;SHT30;60314;55.040;73.076;2023-01-15T14:05:55;-6.20;79.40
72355;SHT30;60314;55.040;73.076;2023-01-15T14:08:38;-6.24;79.54
72355;SHT30;60314;55.040;73.076;2023-01-15T14:11:27;-6.26;79.91
72355;SHT30;60314;55.040;73.076;2023-01-15T14:28:10;-6.16;80.22
72355;SHT30;60314;55.040;73.076;2023-01-15T14:30:58;-6.13;80.08
72355;SHT30;60314;55.040;73.076;2023-01-15T14:36:48;-6.14;79.98
72355;SHT30;60314;55.040;73.076;2023-01-15T14:39:21;-6.09;79.93
72355;SHT30;60314;55.040;73.076;2023-01-15T14:41:52;-6.13;79.92
72355;SHT30;60314;55.040;73.076;2023-01-15T14:44:43;-6.10;79.89
72355;SHT30;60314;55.040;73.076;2023-01-15T14:47:32;-6.09;79.75
72355;SHT30;60314;55.040;73.076;2023-01-15T14:52:42;-6.04;79.70
72355;SHT30;60314;55.040;73.076;2023-01-15T14:55:15;-6.03;79.52
72355;SHT30;60314;55.040;73.076;2023-01-15T14:57:43;-6.04;79.59
72355;SHT30;60314;55.040;73.076;2023-01-15T15:00:15;-6.04;79.62
72355;SHT30;60314;55.040;73.076;2023-01-15T15:02:43;-6.03;79.43
72355;SHT30;60314;55.040;73.076;2023-01-15T15:05:12;-6.03;79.52
72355;SHT30;60314;55.040;73.076;2023-01-15T15:07:41;-6.00;79.55
72355;SHT30;60314;55.040;73.076;2023-01-15T15:10:25;-5.94;79.33
72355;SHT30;60314;55.040;73.076;2023-01-15T15:13:04;-5.90;79.26
72355;SHT30;60314;55.040;73.076;2023-01-15T15:18:25;-5.81;78.63
72355;SHT30;60314;55.040;73.076;2023-01-15T15:21:09;-5.76;78.47
72355;SHT30;60314;55.040;73.076;2023-01-15T15:24:04;-5.76;78.41
72355;SHT30;60314;55.040;73.076;2023-01-15T15:26:33;-5.75;78.37
72355;SHT30;60314;55.040;73.076;2023-01-15T15:29:10;-5.78;78.30
72355;SHT30;60314;55.040;73.076;2023-01-15T15:31:40;-5.76;78.26
72355;SHT30;60314;55.040;73.076;2023-01-15T15:34:15;-5.79;78.37
72355;SHT30;60314;55.040;73.076;2023-01-15T15:36:43;-5.79;78.31
72355;SHT30;60314;55.040;73.076;2023-01-15T15:39:25;-5.79;78.37
72355;SHT30;60314;55.040;73.076;2023-01-15T15:42:03;-5.76;78.24
72355;SHT30;60314;55.040;73.076;2023-01-15T15:45:32;-5.82;78.30
72355;SHT30;60314;55.040;73.076;2023-01-15T15:48:17;-5.81;78.46
72355;SHT30;60314;55.040;73.076;2023-01-15T15:54:10;-5.81;78.27
72355;SHT30;60314;55.040;73.076;2023-01-15T15:56:38;-5.83;78.31
72355;SHT30;60314;55.040;73.076;2023-01-15T15:59:05;-5.85;78.41
72355;SHT30;60314;55.040;73.076;2023-01-15T16:01:41;-5.89;78.44
72355;SHT30;60314;55.040;73.076;2023-01-15T16:04:14;-5.85;78.55
72355;SHT30;60314;55.040;73.076;2023-01-15T16:06:41;-5.83;78.46
72355;SHT30;60314;55.040;73.076;2023-01-15T16:09:08;-5.79;78.24
72355;SHT30;60314;55.040;73.076;2023-01-15T16:11:34;-5.81;78.35
72355;SHT30;60314;55.040;73.076;2023-01-15T16:14:03;-5.81;78.39
72355;SHT30;60314;55.040;73.076;2023-01-15T16:16:30;-5.82;78.45
72355;SHT30;60314;55.040;73.076;2023-01-15T16:18:59;-5.85;78.60
72355;SHT30;60314;55.040;73.076;2023-01-15T16:21:28;-5.87;78.64
72355;SHT30;60314;55.040;73.076;2023-01-15T16:24:02;-5.90;78.82
72355;SHT30;60314;55.040;73.076;2023-01-15T16:28:55;-5.96;79.14
72355;SHT30;60314;55.040;73.076;2023-01-15T16:31:22;-6.00;79.19
72355;SHT30;60314;55.040;73.076;2023-01-15T16:33:55;-6.00;79.45
72355;SHT30;60314;55.040;73.076;2023-01-15T16:36:22;-6.03;79.46
72355;SHT30;60314;55.040;73.076;2023-01-15T16:38:59;-6.02;79.59
72355;SHT30;60314;55.040;73.076;2023-01-15T16:41:31;-5.97;79.42
72355;SHT30;60314;55.040;73.076;2023-01-15T16:44:04;-5.94;79.24
72355;SHT30;60314;55.040;73.076;2023-01-15T16:46:31;-5.92;79.11
72355;SHT30;60314;55.040;73.076;2023-01-15T16:49:22;-5.92;79.10
72355;SHT30;60314;55.040;73.076;2023-01-15T16:51:50;-5.93;79.07
72355;SHT30;60314;55.040;73.076;2023-01-15T16:54:38;-5.94;79.24
72355;SHT30;60314;55.040;73.076;2023-01-15T17:00:10;-5.83;78.84
72355;SHT30;60314;55.040;73.076;2023-01-15T17:02:51;-5.82;78.71
72355;SHT30;60314;55.040;73.076;2023-01-15T17:05:20;-5.85;78.60
72355;SHT30;60314;55.040;73.076;2023-01-15T17:07:52;-5.81;78.67
72355;SHT30;60314;55.040;73.076;2023-01-15T17:10:23;-5.83;78.64
72355;SHT30;60314;55.040;73.076;2023-01-15T17:12:51;-5.79;78.52
72355;SHT30;60314;55.040;73.076;2023-01-15T17:17:46;-5.76;78.64
72355;SHT30;60314;55.040;73.076;2023-01-15T17:20:16;-5.78;78.31
72355;SHT30;60314;55.040;73.076;2023-01-15T17:22:53;-5.79;78.41
72355;SHT30;60314;55.040;73.076;2023-01-15T17:27:47;-5.72;78.16
72355;SHT30;60314;55.040;73.076;2023-01-15T17:30:24;-5.79;78.33
72355;SHT30;60314;55.040;73.076;2023-01-15T17:32:56;-5.78;78.11
72355;SHT30;60314;55.040;73.076;2023-01-15T17:35:28;-5.82;78.33
72355;SHT30;60314;55.040;73.076;2023-01-15T17:37:55;-5.83;78.16
72355;SHT30;60314;55.040;73.076;2023-01-15T17:40:22;-5.85;78.11
72355;SHT30;60314;55.040;73.076;2023-01-15T17:42:49;-5.86;78.06
72355;SHT30;60314;55.040;73.076;2023-01-15T17:45:21;-5.85;77.88
72355;SHT30;60314;55.040;73.076;2023-01-15T17:47:50;-5.85;77.56